sensor_id;sensor_type;location;lat;lon;timestamp;pressure;altitude;pressure_sealevel;temperature;humidity
74075;BME280;62428;51.412;5.432;2023-06-14T00:01:37;101239.78;;;21.22;41.89
74075;BME280;62428;51.412;5.432;2023-06-14T00:04:03;101250.63;;;21.18;42.60
74075;BME280;62428;51.412;5.432;2023-06-14T00:06:30;101249.03;;;21.17;42.05
74075;BME280;62428;51.412;5.432;2023-06-14T00:08:55;101248.16;;;21.13;42.58
74075;BME280;62428;51.412;5.432;2023-06-14T00:11:21;101248.41;;;21.08;42.19
74075;BME280;62428;51.412;5.432;2023-06-14T00:13:46;101244.81;;;21.04;42.26
74075;BME280;62428;51.412;5.432;2023-06-14T00:16:12;101247.47;;;21.00;42.18
74075;BME280;62428;51.412;5.432;2023-06-14T00:18:37;101242.59;;;20.93;42.44
74075;BME280;62428;51.412;5.432;2023-06-14T00:21:03;101257.06;;;20.94;42.00
74075;BME280;62428;51.412;5.432;2023-06-14T00:23:29;101257.06;;;20.94;42.37
74075;BME280;62428;51.412;5.432;2023-06-14T00:25:55;101256.97;;;20.90;42.58
74075;BME280;62428;51.412;5.432;2023-06-14T00:28:20;101266.31;;;20.89;42.86
74075;BME280;62428;51.412;5.432;2023-06-14T00:30:46;101267.03;;;20.86;42.93
74075;BME280;62428;51.412;5.432;2023-06-14T00:33:12;101253.63;;;20.81;43.29
74075;BME280;62428;51.412;5.432;2023-06-14T00:35:37;101263.22;;;20.75;42.84
74075;BME280;62428;51.412;5.432;2023-06-14T00:38:02;101261.53;;;20.70;42.63
74075;BME280;62428;51.412;5.432;2023-06-14T00:40:28;101263.50;;;20.70;42.73
74075;BME280;62428;51.412;5.432;2023-06-14T00:42:53;101262.69;;;20.69;41.75
74075;BME280;62428;51.412;5.432;2023-06-14T00:45:19;101260.28;;;20.68;41.72
74075;BME280;62428;51.412;5.432;2023-06-14T00:47:45;101261.91;;;20.69;42.13
74075;BME280;62428;51.412;5.432;2023-06-14T00:50:11;101259.06;;;20.65;41.54
74075;BME280;62428;51.412;5.432;2023-06-14T00:52:38;101261.00;;;20.65;40.99
74075;BME280;62428;51.412;5.432;2023-06-14T00:55:04;101252.81;;;20.65;40.36
74075;BME280;62428;51.412;5.432;2023-06-14T00:57:30;101258.63;;;20.63;40.23
74075;BME280;62428;51.412;5.432;2023-06-14T00:59:56;101262.50;;;20.62;40.85
74075;BME280;62428;51.412;5.432;2023-06-14T01:02:21;101259.28;;;20.60;41.50
74075;BME280;62428;51.412;5.432;2023-06-14T01:04:48;101256.56;;;20.60;40.15
74075;BME280;62428;51.412;5.432;2023-06-14T01:07:55;101261.91;;;20.57;40.12
74075;BME280;62428;51.412;5.432;2023-06-14T01:13:27;101262.53;;;20.50;39.97
74075;BME280;62428;51.412;5.432;2023-06-14T01:15:55;101263.22;;;20.47;39.91
74075;BME280;62428;51.412;5.432;2023-06-14T01:18:21;101267.44;;;20.44;39.85
74075;BME280;62428;51.412;5.432;2023-06-14T01:20:49;101257.13;;;20.38;39.56
74075;BME280;62428;51.412;5.432;2023-06-14T01:23:19;101263.28;;;20.34;40.07
74075;BME280;62428;51.412;5.432;2023-06-14T01:25:44;101255.78;;;20.31;39.37
74075;BME280;62428;51.412;5.432;2023-06-14T01:28:12;101251.47;;;20.30;39.94
74075;BME280;62428;51.412;5.432;2023-06-14T01:30:42;101257.28;;;20.29;39.27
74075;BME280;62428;51.412;5.432;2023-06-14T01:33:12;101261.84;;;20.25;39.59
74075;BME280;62428;51.412;5.432;2023-06-14T01:35:39;101256.28;;;20.21;39.71
74075;BME280;62428;51.412;5.432;2023-06-14T01:38:06;101261.66;;;20.17;39.37
74075;BME280;62428;51.412;5.432;2023-06-14T01:40:33;101259.94;;;20.13;39.77
74075;BME280;62428;51.412;5.432;2023-06-14T01:42:59;101261.00;;;20.08;39.30
74075;BME280;62428;51.412;5.432;2023-06-14T01:45:26;101258.97;;;20.05;39.74
74075;BME280;62428;51.412;5.432;2023-06-14T01:47:52;101256.56;;;20.04;39.91
74075;BME280;62428;51.412;5.432;2023-06-14T01:50:20;101263.88;;;20.00;39.85
74075;BME280;62428;51.412;5.432;2023-06-14T01:52:45;101255.13;;;19.94;39.70
74075;BME280;62428;51.412;5.432;2023-06-14T01:55:11;101253.44;;;19.89;39.52
74075;BME280;62428;51.412;5.432;2023-06-14T01:57:36;101256.41;;;19.84;40.16
74075;BME280;62428;51.412;5.432;2023-06-14T02:00:02;101251.66;;;19.81;40.10
74075;BME280;62428;51.412;5.432;2023-06-14T02:02:29;101255.28;;;19.73;40.58
74075;BME280;62428;51.412;5.432;2023-06-14T02:04:54;101247.78;;;19.70;40.68
74075;BME280;62428;51.412;5.432;2023-06-14T02:07:22;101248.81;;;19.65;40.25
74075;BME280;62428;51.412;5.432;2023-06-14T02:09:48;101256.41;;;19.59;40.96
74075;BME280;62428;51.412;5.432;2023-06-14T02:12:13;101256.31;;;19.56;40.69
74075;BME280;62428;51.412;5.432;2023-06-14T02:14:38;101265.28;;;19.56;41.11
74075;BME280;62428;51.412;5.432;2023-06-14T02:17:04;101254.25;;;19.53;40.52
74075;BME280;62428;51.412;5.432;2023-06-14T02:19:31;101250.19;;;19.47;40.74
74075;BME280;62428;51.412;5.432;2023-06-14T02:21:57;101254.41;;;19.44;40.83
74075;BME280;62428;51.412;5.432;2023-06-14T02:24:22;101257.81;;;19.41;40.58
74075;BME280;62428;51.412;5.432;2023-06-14T02:26:49;101257.25;;;19.35;41.30
74075;BME280;62428;51.412;5.432;2023-06-14T02:29:14;101261.78;;;19.31;41.15
74075;BME280;62428;51.412;5.432;2023-06-14T02:31:41;101259.75;;;19.28;41.48
74075;BME280;62428;51.412;5.432;2023-06-14T02:34:06;101264.84;;;19.30;41.44
74075;BME280;62428;51.412;5.432;2023-06-14T02:36:34;101265.06;;;19.25;41.30
74075;BME280;62428;51.412;5.432;2023-06-14T02:38:59;101268.47;;;19.21;41.43
74075;BME280;62428;51.412;5.432;2023-06-14T02:41:25;101267.09;;;19.15;41.41
74075;BME280;62428;51.412;5.432;2023-06-14T02:43:51;101269.59;;;19.08;41.95
74075;BME280;62428;51.412;5.432;2023-06-14T02:46:17;101261.66;;;19.03;41.96
74075;BME280;62428;51.412;5.432;2023-06-14T02:48:42;101266.97;;;18.99;42.07
74075;BME280;62428;51.412;5.432;2023-06-14T02:51:07;101266.84;;;18.96;41.99
74075;BME280;62428;51.412;5.432;2023-06-14T02:53:35;101274.13;;;18.92;42.14
74075;BME280;62428;51.412;5.432;2023-06-14T02:56:00;101269.22;;;18.85;42.14
74075;BME280;62428;51.412;5.432;2023-06-14T02:58:26;101266.91;;;18.75;42.23
74075;BME280;62428;51.412;5.432;2023-06-14T03:00:51;101280.84;;;18.73;42.52
74075;BME280;62428;51.412;5.432;2023-06-14T03:03:18;101275.75;;;18.72;42.64
74075;BME280;62428;51.412;5.432;2023-06-14T03:05:47;101281.19;;;18.72;42.29
74075;BME280;62428;51.412;5.432;2023-06-14T03:08:13;101284.56;;;18.69;42.59
74075;BME280;62428;51.412;5.432;2023-06-14T03:10:45;101287.63;;;18.67;42.69
74075;BME280;62428;51.412;5.432;2023-06-14T03:13:11;101284.09;;;18.67;42.25
74075;BME280;62428;51.412;5.432;2023-06-14T03:15:37;101290.34;;;18.67;42.53
74075;BME280;62428;51.412;5.432;2023-06-14T03:18:04;101291.47;;;18.66;42.21
74075;BME280;62428;51.412;5.432;2023-06-14T03:20:29;101294.41;;;18.61;42.67
74075;BME280;62428;51.412;5.432;2023-06-14T03:23:01;101291.22;;;18.59;42.59
74075;BME280;62428;51.412;5.432;2023-06-14T03:25:27;101295.44;;;18.56;43.02
74075;BME280;62428;51.412;5.432;2023-06-14T03:27:55;101296.53;;;18.55;42.90
74075;BME280;62428;51.412;5.432;2023-06-14T03:30:20;101290.97;;;18.52;43.24
74075;BME280;62428;51.412;5.432;2023-06-14T03:32:45;101296.41;;;18.52;43.12
74075;BME280;62428;51.412;5.432;2023-06-14T03:35:11;101299.47;;;18.50;43.29
74075;BME280;62428;51.412;5.432;2023-06-14T03:37:45;101301.06;;;18.51;42.84
74075;BME280;62428;51.412;5.432;2023-06-14T03:40:12;101304.44;;;18.48;43.29
74075;BME280;62428;51.412;5.432;2023-06-14T03:42:38;101305.56;;;18.47;43.49
74075;BME280;62428;51.412;5.432;2023-06-14T03:45:04;101307.03;;;18.44;43.53
74075;BME280;62428;51.412;5.432;2023-06-14T03:47:30;101297.63;;;18.42;43.58
74075;BME280;62428;51.412;5.432;2023-06-14T03:49:55;101309.31;;;18.42;43.68
74075;BME280;62428;51.412;5.432;2023-06-14T03:52:21;101304.97;;;18.41;43.32
74075;BME280;62428;51.412;5.432;2023-06-14T03:54:48;101309.19;;;18.39;43.91
74075;BME280;62428;51.412;5.432;2023-06-14T03:57:14;101303.59;;;18.35;44.10
74075;BME280;62428;51.412;5.432;2023-06-14T03:59:40;101309.03;;;18.35;43.98
74075;BME280;62428;51.412;5.432;2023-06-14T04:02:06;101310.66;;;18.36;43.85
74075;BME280;62428;51.412;5.432;2023-06-14T04:04:32;101308.72;;;18.37;43.89
74075;BME280;62428;51.412;5.432;2023-06-14T04:06:57;101309.03;;;18.35;44.10
74075;BME280;62428;51.412;5.432;2023-06-14T04:09:25;101312.88;;;18.34;44.07
74075;BME280;62428;51.412;5.432;2023-06-14T04:11:54;101314.34;;;18.32;44.13
74075;BME280;62428;51.412;5.432;2023-06-14T04:14:20;101311.03;;;18.26;44.44
74075;BME280;62428;51.412;5.432;2023-06-14T04:16:46;101324.84;;;18.21;44.75
74075;BME280;62428;51.412;5.432;2023-06-14T04:19:12;101323.59;;;18.18;44.63
74075;BME280;62428;51.412;5.432;2023-06-14T04:21:37;101318.94;;;18.19;45.04
74075;BME280;62428;51.412;5.432;2023-06-14T04:24:03;101325.97;;;18.20;45.13
74075;BME280;62428;51.412;5.432;2023-06-14T04:26:29;101323.91;;;18.17;44.73
74075;BME280;62428;51.412;5.432;2023-06-14T04:28:55;101323.44;;;18.15;44.75
74075;BME280;62428;51.412;5.432;2023-06-14T04:31:22;101321.97;;;18.17;44.86
74075;BME280;62428;51.412;5.432;2023-06-14T04:33:50;101318.94;;;18.19;44.51
74075;BME280;62428;51.412;5.432;2023-06-14T04:36:18;101322.75;;;18.18;45.00
74075;BME280;62428;51.412;5.432;2023-06-14T04:38:44;101327.09;;;18.19;45.51
74075;BME280;62428;51.412;5.432;2023-06-14T04:41:10;101328.56;;;18.16;45.05
74075;BME280;62428;51.412;5.432;2023-06-14T04:43:37;101329.34;;;18.17;45.45
74075;BME280;62428;51.412;5.432;2023-06-14T04:46:06;101330.91;;;18.18;45.46
74075;BME280;62428;51.412;5.432;2023-06-14T04:48:40;101331.06;;;18.21;45.27
74075;BME280;62428;51.412;5.432;2023-06-14T04:51:10;101338.75;;;18.19;44.91
74075;BME280;62428;51.412;5.432;2023-06-14T04:53:35;101335.72;;;18.21;45.79
74075;BME280;62428;51.412;5.432;2023-06-14T04:56:02;101336.16;;;18.23;45.40
74075;BME280;62428;51.412;5.432;2023-06-14T04:58:28;101331.66;;;18.27;45.43
74075;BME280;62428;51.412;5.432;2023-06-14T05:00:54;101340.63;;;18.28;45.06
74075;BME280;62428;51.412;5.432;2023-06-14T05:03:22;101337.22;;;18.31;45.29
74075;BME280;62428;51.412;5.432;2023-06-14T05:05:47;101346.66;;;18.33;45.29
74075;BME280;62428;51.412;5.432;2023-06-14T05:08:13;101341.03;;;18.38;45.48
74075;BME280;62428;51.412;5.432;2023-06-14T05:10:39;101343.88;;;18.42;45.34
74075;BME280;62428;51.412;5.432;2023-06-14T05:13:04;101341.16;;;18.42;45.32
74075;BME280;62428;51.412;5.432;2023-06-14T05:15:30;101345.66;;;18.38;45.68
74075;BME280;62428;51.412;5.432;2023-06-14T05:17:55;101344.06;;;18.37;45.77
74075;BME280;62428;51.412;5.432;2023-06-14T05:20:22;101350.44;;;18.41;46.18
74075;BME280;62428;51.412;5.432;2023-06-14T05:22:51;101346.38;;;18.47;45.40
74075;BME280;62428;51.412;5.432;2023-06-14T05:25:18;101351.47;;;18.49;45.79
74075;BME280;62428;51.412;5.432;2023-06-14T05:27:44;101351.47;;;18.49;45.72
74075;BME280;62428;51.412;5.432;2023-06-14T05:30:10;101354.22;;;18.49;45.52
74075;BME280;62428;51.412;5.432;2023-06-14T05:32:35;101349.72;;;18.53;45.81
74075;BME280;62428;51.412;5.432;2023-06-14T05:35:01;101359.91;;;18.56;44.98
74075;BME280;62428;51.412;5.432;2023-06-14T05:37:26;101346.31;;;18.56;45.62
74075;BME280;62428;51.412;5.432;2023-06-14T05:39:51;101357.06;;;18.52;45.60
74075;BME280;62428;51.412;5.432;2023-06-14T05:42:17;101359.91;;;18.56;46.31
74075;BME280;62428;51.412;5.432;2023-06-14T05:44:42;101356.66;;;18.62;46.15
74075;BME280;62428;51.412;5.432;2023-06-14T05:47:07;101356.25;;;18.73;45.80
74075;BME280;62428;51.412;5.432;2023-06-14T05:49:32;101360.50;;;18.82;45.28
74075;BME280;62428;51.412;5.432;2023-06-14T05:51:58;101364.47;;;18.85;45.63
74075;BME280;62428;51.412;5.432;2023-06-14T05:54:23;101359.97;;;18.89;45.52
74075;BME280;62428;51.412;5.432;2023-06-14T05:56:48;101370.75;;;18.98;45.52
74075;BME280;62428;51.412;5.432;2023-06-14T05:59:14;101369.88;;;19.06;45.14
74075;BME280;62428;51.412;5.432;2023-06-14T06:01:39;101377.16;;;19.14;44.98
74075;BME280;62428;51.412;5.432;2023-06-14T06:04:05;101377.41;;;19.21;45.85
74075;BME280;62428;51.412;5.432;2023-06-14T06:06:31;101380.63;;;19.36;45.75
74075;BME280;62428;51.412;5.432;2023-06-14T06:08:57;101367.13;;;19.52;44.60
74075;BME280;62428;51.412;5.432;2023-06-14T06:11:23;101374.50;;;19.64;43.77
74075;BME280;62428;51.412;5.432;2023-06-14T06:13:48;101380.00;;;19.76;43.48
74075;BME280;62428;51.412;5.432;2023-06-14T06:16:14;101379.28;;;19.91;43.70
74075;BME280;62428;51.412;5.432;2023-06-14T06:18:39;101385.19;;;20.06;43.98
74075;BME280;62428;51.412;5.432;2023-06-14T06:21:05;101386.34;;;20.17;43.30
74075;BME280;62428;51.412;5.432;2023-06-14T06:23:31;101388.69;;;20.31;43.33
74075;BME280;62428;51.412;5.432;2023-06-14T06:25:57;101388.88;;;20.50;43.72
74075;BME280;62428;51.412;5.432;2023-06-14T06:28:22;101393.84;;;20.61;42.07
74075;BME280;62428;51.412;5.432;2023-06-14T06:30:48;101389.50;;;20.72;42.44
74075;BME280;62428;51.412;5.432;2023-06-14T06:33:13;101398.25;;;20.93;42.13
74075;BME280;62428;51.412;5.432;2023-06-14T06:35:39;101393.72;;;21.13;40.42
74075;BME280;62428;51.412;5.432;2023-06-14T06:38:04;101398.59;;;21.20;40.90
74075;BME280;62428;51.412;5.432;2023-06-14T06:40:30;101406.63;;;21.29;40.81
74075;BME280;62428;51.412;5.432;2023-06-14T06:42:55;101415.78;;;21.37;40.14
74075;BME280;62428;51.412;5.432;2023-06-14T06:45:21;101412.94;;;21.45;40.47
74075;BME280;62428;51.412;5.432;2023-06-14T06:47:48;101423.31;;;21.56;41.07
74075;BME280;62428;51.412;5.432;2023-06-14T06:50:13;101416.72;;;21.73;40.31
74075;BME280;62428;51.412;5.432;2023-06-14T06:52:39;101426.06;;;21.87;39.85
74075;BME280;62428;51.412;5.432;2023-06-14T06:55:04;101420.94;;;22.02;39.21
74075;BME280;62428;51.412;5.432;2023-06-14T06:57:29;101424.00;;;22.16;39.38
74075;BME280;62428;51.412;5.432;2023-06-14T06:59:55;101426.69;;;22.32;38.99
74075;BME280;62428;51.412;5.432;2023-06-14T07:02:21;101430.00;;;22.41;38.68
74075;BME280;62428;51.412;5.432;2023-06-14T07:04:46;101429.09;;;22.53;38.40
74075;BME280;62428;51.412;5.432;2023-06-14T07:07:12;101427.81;;;22.67;37.86
74075;BME280;62428;51.412;5.432;2023-06-14T07:09:37;101431.19;;;22.79;37.40
74075;BME280;62428;51.412;5.432;2023-06-14T07:12:03;101439.91;;;22.85;36.76
74075;BME280;62428;51.412;5.432;2023-06-14T07:14:28;101440.47;;;22.94;37.39
74075;BME280;62428;51.412;5.432;2023-06-14T07:16:55;101447.16;;;23.13;36.62
74075;BME280;62428;51.412;5.432;2023-06-14T07:19:20;101446.25;;;23.28;36.41
74075;BME280;62428;51.412;5.432;2023-06-14T07:21:46;101442.53;;;23.40;36.66
74075;BME280;62428;51.412;5.432;2023-06-14T07:24:11;101444.66;;;23.50;36.94
74075;BME280;62428;51.412;5.432;2023-06-14T07:26:37;101449.25;;;23.66;37.03
74075;BME280;62428;51.412;5.432;2023-06-14T07:29:02;101453.16;;;23.88;36.64
74075;BME280;62428;51.412;5.432;2023-06-14T07:31:28;101455.69;;;24.00;35.40
74075;BME280;62428;51.412;5.432;2023-06-14T07:33:53;101454.84;;;23.96;33.80
74075;BME280;62428;51.412;5.432;2023-06-14T07:36:18;101463.38;;;23.91;34.72
74075;BME280;62428;51.412;5.432;2023-06-14T07:38:44;101462.03;;;24.04;35.40
74075;BME280;62428;51.412;5.432;2023-06-14T07:41:10;101472.00;;;24.16;34.34
74075;BME280;62428;51.412;5.432;2023-06-14T07:43:35;101464.97;;;24.18;33.55
74075;BME280;62428;51.412;5.432;2023-06-14T07:46:01;101465.03;;;24.22;34.41
74075;BME280;62428;51.412;5.432;2023-06-14T07:48:27;101467.59;;;24.38;34.64
74075;BME280;62428;51.412;5.432;2023-06-14T07:50:53;101473.63;;;24.47;34.03
74075;BME280;62428;51.412;5.432;2023-06-14T07:53:18;101471.28;;;24.49;33.95
74075;BME280;62428;51.412;5.432;2023-06-14T07:55:43;101459.78;;;24.67;34.00
74075;BME280;62428;51.412;5.432;2023-06-14T07:58:09;101473.69;;;24.81;33.50
74075;BME280;62428;51.412;5.432;2023-06-14T08:00:35;101468.66;;;24.87;34.51
74075;BME280;62428;51.412;5.432;2023-06-14T08:03:01;101476.91;;;24.87;34.18
74075;BME280;62428;51.412;5.432;2023-06-14T08:05:27;101479.25;;;24.85;35.28
74075;BME280;62428;51.412;5.432;2023-06-14T08:07:52;101486.00;;;24.94;33.53
74075;BME280;62428;51.412;5.432;2023-06-14T08:10:18;101482.56;;;25.01;33.41
74075;BME280;62428;51.412;5.432;2023-06-14T08:12:43;101488.81;;;24.98;33.06
74075;BME280;62428;51.412;5.432;2023-06-14T08:15:09;101482.53;;;24.98;33.92
74075;BME280;62428;51.412;5.432;2023-06-14T08:17:35;101488.03;;;24.98;32.88
74075;BME280;62428;51.412;5.432;2023-06-14T08:20:00;101485.59;;;24.92;32.59
74075;BME280;62428;51.412;5.432;2023-06-14T08:22:25;101478.94;;;24.93;32.30
74075;BME280;62428;51.412;5.432;2023-06-14T08:24:53;101478.50;;;24.91;32.80
74075;BME280;62428;51.412;5.432;2023-06-14T08:27:19;101475.44;;;24.97;32.33
74075;BME280;62428;51.412;5.432;2023-06-14T08:29:45;101491.63;;;25.05;32.92
74075;BME280;62428;51.412;5.432;2023-06-14T08:32:10;101484.50;;;24.97;32.42
74075;BME280;62428;51.412;5.432;2023-06-14T08:34:36;101475.41;;;24.93;33.08
74075;BME280;62428;51.412;5.432;2023-06-14T08:37:01;101485.31;;;25.01;32.16
74075;BME280;62428;51.412;5.432;2023-06-14T08:39:27;101481.44;;;25.06;32.67
74075;BME280;62428;51.412;5.432;2023-06-14T08:41:52;101491.72;;;25.12;31.99
74075;BME280;62428;51.412;5.432;2023-06-14T08:44:19;101481.59;;;25.20;32.16
74075;BME280;62428;51.412;5.432;2023-06-14T08:46:45;101478.91;;;25.24;32.28
74075;BME280;62428;51.412;5.432;2023-06-14T08:49:12;101476.50;;;25.22;31.47
74075;BME280;62428;51.412;5.432;2023-06-14T08:51:39;101470.66;;;25.24;32.33
74075;BME280;62428;51.412;5.432;2023-06-14T08:54:06;101475.03;;;25.28;31.13
74075;BME280;62428;51.412;5.432;2023-06-14T08:56:32;101474.66;;;25.30;30.76
74075;BME280;62428;51.412;5.432;2023-06-14T08:58:59;101482.38;;;25.21;31.71
74075;BME280;62428;51.412;5.432;2023-06-14T09:01:32;101478.91;;;25.24;32.04
74075;BME280;62428;51.412;5.432;2023-06-14T09:03:59;101474.66;;;25.30;31.02
74075;BME280;62428;51.412;5.432;2023-06-14T09:06:25;101487.38;;;25.45;30.62
74075;BME280;62428;51.412;5.432;2023-06-14T09:08:50;101474.06;;;25.51;30.46
74075;BME280;62428;51.412;5.432;2023-06-14T09:11:17;101472.59;;;25.64;32.46
74075;BME280;62428;51.412;5.432;2023-06-14T09:13:44;101474.25;;;25.73;31.10
74075;BME280;62428;51.412;5.432;2023-06-14T09:16:10;101480.19;;;25.78;29.04
74075;BME280;62428;51.412;5.432;2023-06-14T09:18:44;101487.31;;;25.86;29.83
74075;BME280;62428;51.412;5.432;2023-06-14T09:21:10;101477.13;;;25.87;28.01
74075;BME280;62428;51.412;5.432;2023-06-14T09:23:40;101485.38;;;25.87;29.11
74075;BME280;62428;51.412;5.432;2023-06-14T09:26:13;101477.91;;;25.87;27.44
74075;BME280;62428;51.412;5.432;2023-06-14T09:28:42;101486.53;;;25.86;28.22
74075;BME280;62428;51.412;5.432;2023-06-14T09:31:10;101490.03;;;25.83;27.45
74075;BME280;62428;51.412;5.432;2023-06-14T09:33:36;101484.44;;;25.68;27.01
74075;BME280;62428;51.412;5.432;2023-06-14T09:36:02;101492.25;;;25.63;27.82
74075;BME280;62428;51.412;5.432;2023-06-14T09:38:27;101493.31;;;25.51;26.38
74075;BME280;62428;51.412;5.432;2023-06-14T09:40:56;101484.25;;;25.47;27.71
74075;BME280;62428;51.412;5.432;2023-06-14T09:43:22;101485.41;;;25.46;28.17
74075;BME280;62428;51.412;5.432;2023-06-14T09:45:48;101484.25;;;25.47;27.44
74075;BME280;62428;51.412;5.432;2023-06-14T09:48:14;101492.19;;;25.56;26.60
74075;BME280;62428;51.412;5.432;2023-06-14T09:50:45;101487.41;;;25.49;26.51
74075;BME280;62428;51.412;5.432;2023-06-14T09:53:11;101484.66;;;25.49;26.69
74075;BME280;62428;51.412;5.432;2023-06-14T09:55:37;101485.50;;;25.57;27.20
74075;BME280;62428;51.412;5.432;2023-06-14T09:58:06;101483.97;;;25.59;26.67
74075;BME280;62428;51.412;5.432;2023-06-14T10:00:33;101481.63;;;25.61;27.15
74075;BME280;62428;51.412;5.432;2023-06-14T10:03:28;101484.72;;;25.56;27.16
74075;BME280;62428;51.412;5.432;2023-06-14T10:05:55;101480.38;;;25.55;26.48
74075;BME280;62428;51.412;5.432;2023-06-14T10:08:25;101476.03;;;25.50;26.37
74075;BME280;62428;51.412;5.432;2023-06-14T10:10:54;101479.59;;;25.55;27.68
74075;BME280;62428;51.412;5.432;2023-06-14T10:13:20;101470.59;;;25.58;26.10
74075;BME280;62428;51.412;5.432;2023-06-14T10:21:21;101481.31;;;25.74;26.99
74075;BME280;62428;51.412;5.432;2023-06-14T10:23:48;101484.06;;;25.74;25.44
74075;BME280;62428;51.412;5.432;2023-06-14T10:26:23;101484.03;;;25.70;26.34
74075;BME280;62428;51.412;5.432;2023-06-14T10:29:00;101482.47;;;25.69;26.72
74075;BME280;62428;51.412;5.432;2023-06-14T10:31:47;101486.84;;;25.74;26.40
74075;BME280;62428;51.412;5.432;2023-06-14T10:37:03;101483.59;;;25.64;25.83
74075;BME280;62428;51.412;5.432;2023-06-14T10:39:30;101482.41;;;25.62;25.51
74075;BME280;62428;51.412;5.432;2023-06-14T10:41:56;101479.22;;;25.56;26.67
74075;BME280;62428;51.412;5.432;2023-06-14T10:46:54;101488.97;;;25.50;26.75
74075;BME280;62428;51.412;5.432;2023-06-14T10:49:45;101467.38;;;25.48;26.83
74075;BME280;62428;51.412;5.432;2023-06-14T10:52:17;101476.84;;;25.55;27.36
74075;BME280;62428;51.412;5.432;2023-06-14T10:55:08;101484.38;;;25.61;27.95
74075;BME280;62428;51.412;5.432;2023-06-14T10:57:35;101483.31;;;25.77;27.74
74075;BME280;62428;51.412;5.432;2023-06-14T11:00:03;101483.78;;;25.86;28.30
74075;BME280;62428;51.412;5.432;2023-06-14T11:05:27;101477.69;;;26.07;27.63
74075;BME280;62428;51.412;5.432;2023-06-14T11:10:38;101472.19;;;26.07;26.94
74075;BME280;62428;51.412;5.432;2023-06-14T11:13:04;101477.31;;;26.08;26.65
74075;BME280;62428;51.412;5.432;2023-06-14T11:15:31;101491.03;;;26.01;27.36
74075;BME280;62428;51.412;5.432;2023-06-14T11:17:57;101474.47;;;25.94;26.90
74075;BME280;62428;51.412;5.432;2023-06-14T11:20:27;101466.63;;;25.96;27.04
74075;BME280;62428;51.412;5.432;2023-06-14T11:22:53;101475.72;;;26.07;27.29
74075;BME280;62428;51.412;5.432;2023-06-14T11:25:19;101473.00;;;26.11;26.52
74075;BME280;62428;51.412;5.432;2023-06-14T11:27:45;101473.72;;;26.04;26.81
74075;BME280;62428;51.412;5.432;2023-06-14T11:30:11;101465.84;;;25.96;27.41
74075;BME280;62428;51.412;5.432;2023-06-14T11:32:37;101474.00;;;25.88;27.41
74075;BME280;62428;51.412;5.432;2023-06-14T11:35:03;101467.28;;;25.86;29.35
74075;BME280;62428;51.412;5.432;2023-06-14T11:37:30;101456.38;;;25.97;28.18
74075;BME280;62428;51.412;5.432;2023-06-14T11:40:03;101465.91;;;26.10;27.94
74075;BME280;62428;51.412;5.432;2023-06-14T11:42:33;101466.31;;;26.16;27.44
74075;BME280;62428;51.412;5.432;2023-06-14T11:44:58;101474.31;;;26.32;27.36
74075;BME280;62428;51.412;5.432;2023-06-14T11:47:24;101461.72;;;26.31;25.80
74075;BME280;62428;51.412;5.432;2023-06-14T11:49:49;101461.31;;;26.28;26.44
74075;BME280;62428;51.412;5.432;2023-06-14T11:52:14;101454.97;;;26.24;26.93
74075;BME280;62428;51.412;5.432;2023-06-14T11:54:40;101461.66;;;26.20;29.71
74075;BME280;62428;51.412;5.432;2023-06-14T11:57:07;101465.22;;;26.24;27.43
74075;BME280;62428;51.412;5.432;2023-06-14T11:59:38;101469.19;;;26.34;28.93
74075;BME280;62428;51.412;5.432;2023-06-14T12:02:04;101451.91;;;26.37;28.21
74075;BME280;62428;51.412;5.432;2023-06-14T12:04:30;101457.41;;;26.37;28.86
74075;BME280;62428;51.412;5.432;2023-06-14T12:06:56;101455.13;;;26.50;28.98
74075;BME280;62428;51.412;5.432;2023-06-14T12:09:23;101466.13;;;26.50;27.99
74075;BME280;62428;51.412;5.432;2023-06-14T12:11:49;101469.69;;;26.54;29.20
74075;BME280;62428;51.412;5.432;2023-06-14T12:14:15;101469.28;;;26.52;28.26
74075;BME280;62428;51.412;5.432;2023-06-14T12:16:41;101467.72;;;26.47;28.28
74075;BME280;62428;51.412;5.432;2023-06-14T12:19:15;101459.41;;;26.40;28.85
74075;BME280;62428;51.412;5.432;2023-06-14T12:21:41;101463.72;;;26.41;28.48
74075;BME280;62428;51.412;5.432;2023-06-14T12:24:08;101464.97;;;26.47;29.19
74075;BME280;62428;51.412;5.432;2023-06-14T12:26:37;101463.38;;;26.46;28.47
74075;BME280;62428;51.412;5.432;2023-06-14T12:29:05;101459.06;;;26.56;29.30
74075;BME280;62428;51.412;5.432;2023-06-14T12:31:31;101450.81;;;26.59;28.45
74075;BME280;62428;51.412;5.432;2023-06-14T12:33:56;101441.81;;;26.62;29.95
74075;BME280;62428;51.412;5.432;2023-06-14T12:36:21;101460.31;;;26.62;26.61
74075;BME280;62428;51.412;5.432;2023-06-14T12:38:47;101464.66;;;26.63;27.15
74075;BME280;62428;51.412;5.432;2023-06-14T12:41:13;101464.97;;;26.51;27.03
74075;BME280;62428;51.412;5.432;2023-06-14T12:43:39;101468.47;;;26.44;28.09
74075;BME280;62428;51.412;5.432;2023-06-14T12:46:05;101457.81;;;26.39;27.82
74075;BME280;62428;51.412;5.432;2023-06-14T12:48:30;101451.91;;;26.37;28.14
74075;BME280;62428;51.412;5.432;2023-06-14T12:50:56;101470.03;;;26.38;27.48
74075;BME280;62428;51.412;5.432;2023-06-14T12:53:23;101473.16;;;26.36;27.73
74075;BME280;62428;51.412;5.432;2023-06-14T12:55:49;101467.22;;;26.31;28.49
74075;BME280;62428;51.412;5.432;2023-06-14T12:58:14;101462.44;;;26.20;28.24
74075;BME280;62428;51.412;5.432;2023-06-14T13:00:42;101454.09;;;26.09;26.98
74075;BME280;62428;51.412;5.432;2023-06-14T13:03:07;101459.59;;;26.06;28.48
74075;BME280;62428;51.412;5.432;2023-06-14T13:05:33;101460.81;;;26.16;27.68
74075;BME280;62428;51.412;5.432;2023-06-14T13:07:59;101469.50;;;26.14;27.20